createdAt,value
2022-12-05T00:24:40.420Z,100638.06
2022-12-05T00:29:32.009Z,100650.59
2022-12-05T00:34:23.824Z,100864.47
2022-12-05T00:39:15.454Z,100897.75
2022-12-05T00:44:07.788Z,101011.69
2022-12-05T00:49:01.124Z,100935.16
2022-12-05T00:53:52.840Z,100764.03
2022-12-05T00:58:44.976Z,100869.94
2022-12-05T01:03:36.654Z,100574.16
2022-12-05T01:08:28.769Z,100584.50
2022-12-05T01:13:20.650Z,100905.88
2022-12-05T01:18:12.294Z,100925.69
2022-12-05T01:23:03.860Z,100787.13
2022-12-05T01:27:55.508Z,100997.06
2022-12-05T01:32:47.117Z,101021.28
2022-12-05T01:37:38.734Z,100889.59
2022-12-05T01:42:30.415Z,100938.00
2022-12-05T01:47:25.099Z,100624.13
2022-12-05T01:52:22.849Z,101028.97
2022-12-05T01:57:15.490Z,100860.03
2022-12-05T02:02:08.970Z,101038.53
2022-12-05T02:07:00.631Z,100725.19
2022-12-05T02:11:55.646Z,100597.41
2022-12-05T02:17:02.543Z,101041.09
2022-12-05T02:22:25.172Z,100948.41
2022-12-05T02:27:30.455Z,100965.63
2022-12-05T02:33:20.621Z,101004.38
2022-12-05T02:38:36.417Z,101044.69
2022-12-05T02:43:41.209Z,101038.06
2022-12-05T02:48:35.205Z,100895.31
2022-12-05T02:53:29.645Z,100920.66
2022-12-05T02:58:38.886Z,100737.94
2022-12-05T03:03:30.905Z,101046.69
2022-12-05T03:08:28.382Z,101028.44
2022-12-05T03:13:27.210Z,100991.03
2022-12-05T03:18:41.953Z,101028.41
2022-12-05T03:23:38.073Z,101062.22
2022-12-05T03:28:35.570Z,101054.56
2022-12-05T03:33:34.986Z,101036.06
2022-12-05T03:38:51.550Z,101068.47
2022-12-05T03:43:59.033Z,101071.63
2022-12-05T03:48:59.783Z,101073.91
2022-12-05T03:53:59.655Z,100959.13
2022-12-05T03:59:05.282Z,101036.44
2022-12-05T04:04:03.292Z,101055.59
2022-12-05T04:09:02.011Z,101067.38
2022-12-05T04:14:00.785Z,101094.06
2022-12-05T04:19:28.166Z,101021.50
2022-12-05T04:24:50.397Z,101026.16
2022-12-05T04:30:10.556Z,101042.84
2022-12-05T04:35:09.901Z,101010.63
2022-12-05T04:40:14.919Z,100993.09
2022-12-05T04:45:10.130Z,101023.22
2022-12-05T04:50:03.430Z,100973.28
2022-12-05T04:55:07.637Z,101049.06
2022-12-05T04:59:59.563Z,101070.63
2022-12-05T05:04:53.096Z,100987.94
2022-12-05T05:09:45.146Z,101053.66
2022-12-05T05:14:36.788Z,101029.69
2022-12-05T05:19:28.481Z,100932.28
2022-12-05T05:24:21.842Z,101005.13
2022-12-05T05:29:14.724Z,101117.28
2022-12-05T05:34:09.754Z,101103.03
2022-12-05T05:39:03.692Z,101074.56
2022-12-05T05:43:56.562Z,100789.88
2022-12-05T05:48:48.671Z,101082.53
2022-12-05T05:53:40.842Z,100987.25
2022-12-05T05:58:32.554Z,101101.03
2022-12-05T06:03:24.168Z,101132.44
2022-12-05T06:08:15.867Z,100961.91
2022-12-05T06:13:07.479Z,101039.44
2022-12-05T06:17:59.165Z,100978.09
2022-12-05T06:22:50.712Z,100919.59
2022-12-05T06:27:42.217Z,101146.19
2022-12-05T06:32:33.821Z,101065.06
2022-12-05T06:37:25.385Z,101046.34
2022-12-05T06:42:16.990Z,101118.72
2022-12-05T06:47:08.548Z,101090.66
2022-12-05T06:52:00.219Z,101150.16
2022-12-05T06:56:51.821Z,101074.91
2022-12-05T07:01:43.874Z,101165.25
2022-12-05T07:06:35.938Z,101167.09
2022-12-05T07:11:27.910Z,101170.41
2022-12-05T07:16:19.542Z,100928.22
2022-12-05T07:21:14.328Z,101132.63
2022-12-05T07:26:15.010Z,101169.88
2022-12-05T07:31:09.656Z,101011.69
2022-12-05T07:36:02.954Z,101198.22
2022-12-05T07:40:54.931Z,101002.97
2022-12-05T07:45:46.826Z,101219.25
2022-12-05T07:50:38.449Z,101085.53
2022-12-05T07:55:30.220Z,101162.06
2022-12-05T08:00:21.991Z,101210.38
2022-12-05T08:05:13.542Z,100971.50
2022-12-05T08:10:05.834Z,100774.88
2022-12-05T08:14:57.481Z,100967.38
2022-12-05T08:19:49.082Z,101067.72
2022-12-05T08:24:40.698Z,101163.69
2022-12-05T08:29:32.814Z,101139.13
2022-12-05T08:34:24.462Z,101051.59
2022-12-05T08:39:19.541Z,101249.72
2022-12-05T08:44:16.102Z,101247.25
2022-12-05T08:49:08.123Z,100998.47
2022-12-05T08:54:02.606Z,100915.50
2022-12-05T08:59:01.212Z,101057.41
2022-12-05T09:03:53.498Z,101157.31
2022-12-05T09:08:45.391Z,101228.81
2022-12-05T09:13:37.583Z,101038.63
2022-12-05T09:18:29.375Z,101052.13
2022-12-05T09:23:20.988Z,101260.84
2022-12-05T09:28:12.555Z,100923.75
2022-12-05T09:33:04.084Z,101268.13
2022-12-05T09:37:57.070Z,101280.13
2022-12-05T09:42:54.407Z,101283.03
2022-12-05T09:47:54.095Z,101027.06
2022-12-05T09:53:10.373Z,101101.16
2022-12-05T09:58:03.820Z,101259.56
2022-12-05T10:03:04.348Z,101057.69
2022-12-05T10:08:12.566Z,101127.59
2022-12-05T10:13:44.328Z,101169.69
2022-12-05T10:18:38.763Z,101273.75
2022-12-05T10:23:58.046Z,101230.88
2022-12-05T10:29:20.856Z,100957.78
2022-12-05T10:34:23.513Z,101169.09
2022-12-05T10:39:15.103Z,101130.34
2022-12-05T10:44:06.778Z,101074.25
2022-12-05T10:48:59.526Z,101196.75
2022-12-05T10:53:52.343Z,101245.53
2022-12-05T10:58:58.067Z,101271.06
2022-12-05T11:03:58.463Z,101176.28
2022-12-05T11:09:24.944Z,101227.88
2022-12-05T11:14:25.968Z,101109.75
2022-12-05T11:19:30.667Z,101289.84
2022-12-05T11:24:29.058Z,101188.84
2022-12-05T11:29:38.381Z,101204.44
2022-12-05T11:34:38.053Z,101127.06
2022-12-05T11:39:29.735Z,101091.88
2022-12-05T11:44:44.267Z,101045.75
2022-12-05T11:49:38.765Z,101263.63
2022-12-05T11:55:04.341Z,101153.06
2022-12-05T12:00:05.498Z,101257.53
2022-12-05T12:05:15.750Z,101256.56
2022-12-05T12:10:42.928Z,101261.59
2022-12-05T12:15:40.746Z,101127.00
2022-12-05T12:20:52.498Z,101241.84
2022-12-05T12:26:06.365Z,101262.66
2022-12-05T12:31:13.304Z,101255.88
2022-12-05T12:36:08.247Z,101261.28
2022-12-05T12:41:22.668Z,101160.16
2022-12-05T12:46:46.445Z,101071.22
2022-12-05T12:51:49.592Z,101156.75
2022-12-05T12:56:50.403Z,101230.50
2022-12-05T13:01:53.480Z,101251.69
2022-12-05T13:07:25.587Z,101164.59
2022-12-05T13:12:23.313Z,101252.94
2022-12-05T13:17:19.988Z,101157.25
2022-12-05T13:22:14.032Z,101182.69
2022-12-05T13:27:09.183Z,101254.06
2022-12-05T13:32:03.986Z,100934.75
2022-12-05T13:37:17.598Z,101074.75
2022-12-05T13:42:24.476Z,101201.81
2022-12-05T13:47:48.206Z,101241.47
2022-12-05T13:52:54.354Z,101260.28
2022-12-05T13:57:49.218Z,101271.53
2022-12-05T14:02:47.812Z,101277.78
2022-12-05T14:07:44.027Z,101169.31
2022-12-05T14:12:48.919Z,101285.13
2022-12-05T14:17:44.995Z,101279.22
2022-12-05T14:22:48.597Z,101289.00
2022-12-05T14:28:35.340Z,101240.88
2022-12-05T14:33:26.974Z,101217.97
2022-12-05T14:38:30.065Z,101240.81
2022-12-05T14:43:33.138Z,101277.53
2022-12-05T14:48:33.778Z,101287.72
2022-12-05T14:53:32.392Z,101202.88
2022-12-05T14:58:45.673Z,101289.22
2022-12-05T15:03:58.536Z,101284.91
2022-12-05T15:08:55.270Z,101244.59
2022-12-05T15:13:47.280Z,101282.31
2022-12-05T15:18:44.428Z,101284.56
2022-12-05T15:23:43.910Z,101298.88
2022-12-05T15:28:35.533Z,100725.44
2022-12-05T15:51:40.099Z,101321.28
2022-12-05T15:56:55.648Z,101330.63
2022-12-05T16:01:52.490Z,101242.47
2022-12-05T16:13:17.611Z,101339.56
2022-12-05T16:18:24.552Z,101341.50
2022-12-05T16:23:45.440Z,101345.50
2022-12-05T16:28:37.167Z,101308.81
2022-12-05T16:33:30.626Z,101306.72
2022-12-05T16:38:32.121Z,101248.53
2022-12-05T16:43:23.637Z,101365.63
2022-12-05T16:48:31.769Z,101363.38
2022-12-05T16:53:32.623Z,101365.94
2022-12-05T16:58:27.551Z,101329.94
2022-12-05T17:15:59.283Z,101377.97
2022-12-05T17:26:30.951Z,101315.31
2022-12-05T17:38:04.219Z,101299.50
2022-12-05T17:42:55.997Z,101384.81
2022-12-05T17:47:47.613Z,101262.25
2022-12-05T17:52:39.344Z,101278.19
2022-12-05T17:57:30.906Z,101318.50
2022-12-05T18:02:22.590Z,101385.81
2022-12-05T18:07:14.204Z,101364.94
2022-12-05T18:12:05.933Z,101388.63
2022-12-05T18:16:57.981Z,101389.16
2022-12-05T18:21:49.838Z,101319.22
2022-12-05T18:26:41.547Z,101388.88
2022-12-05T18:31:33.215Z,101333.09
2022-12-05T18:36:24.849Z,101399.22
2022-12-05T18:53:30.447Z,101412.44
2022-12-05T18:58:23.904Z,101421.03
2022-12-05T19:03:21.723Z,101394.09
2022-12-05T19:08:13.294Z,101423.63
2022-12-05T19:13:04.911Z,101424.31
2022-12-05T19:17:56.469Z,101397.53
2022-12-05T19:22:48.001Z,101376.31
2022-12-05T19:27:39.559Z,101356.41
2022-12-05T19:32:35.401Z,101425.81
2022-12-05T19:37:30.782Z,101433.06
2022-12-05T19:42:22.330Z,101345.53
2022-12-05T19:47:13.951Z,101439.06
2022-12-05T19:52:05.602Z,101439.59
2022-12-05T19:57:00.488Z,101436.16
2022-12-05T20:01:52.425Z,101385.06
2022-12-05T20:06:48.942Z,101440.94
2022-12-05T20:11:43.865Z,101431.16
2022-12-05T20:16:36.631Z,101411.56
2022-12-05T20:21:31.176Z,101427.34
2022-12-05T20:26:25.552Z,101360.50
2022-12-05T20:31:20.168Z,101377.25
2022-12-05T20:36:14.365Z,101370.28
2022-12-05T20:41:08.620Z,101424.06
2022-12-05T20:46:10.131Z,101317.59
2022-12-05T20:51:26.321Z,101379.41
2022-12-05T20:56:25.251Z,101356.25
2022-12-05T21:01:18.661Z,101424.34
2022-12-05T21:06:13.589Z,101401.34
2022-12-05T21:11:06.261Z,101355.81
2022-12-05T21:16:01.084Z,101301.25
2022-12-05T21:21:00.943Z,101421.00
2022-12-05T21:25:53.973Z,101369.56
2022-12-05T21:30:46.257Z,101294.84
2022-12-05T21:35:38.558Z,101327.22
2022-12-05T21:40:30.262Z,101409.78
2022-12-05T21:45:22.517Z,101359.25
2022-12-05T21:50:14.094Z,101319.84
2022-12-05T21:55:07.717Z,101411.03
2022-12-05T21:59:59.753Z,101322.00
2022-12-05T22:04:51.460Z,101422.28
2022-12-05T22:09:43.081Z,101300.53
2022-12-05T22:14:35.415Z,101336.53
2022-12-05T22:19:28.711Z,101428.03
2022-12-05T22:24:20.381Z,101423.91
2022-12-05T22:29:12.020Z,101396.69
2022-12-05T22:34:03.603Z,101329.16
2022-12-05T22:38:55.189Z,101353.53
2022-12-05T22:43:48.556Z,101417.06
2022-12-05T22:48:40.156Z,101388.41
2022-12-05T22:53:32.090Z,101407.16
2022-12-05T22:58:23.635Z,101411.25
2022-12-05T23:03:15.256Z,101367.19
2022-12-05T23:08:07.489Z,101411.53
2022-12-05T23:12:59.109Z,101331.25
2022-12-05T23:17:50.692Z,101392.38
2022-12-05T23:22:42.362Z,101295.16
2022-12-05T23:27:34.763Z,101388.88
2022-12-05T23:32:26.377Z,101387.13
2022-12-05T23:37:18.122Z,101387.81
2022-12-05T23:42:15.069Z,101393.63
2022-12-05T23:47:07.209Z,101358.03
2022-12-05T23:51:58.879Z,101245.97
2022-12-05T23:56:50.496Z,101324.38
